Buoy 21901

sailwx.info

Track history (hours):
 
Tides and Currents Weather Stations Pressure Air Temp Water Temp Dewpoint Dewpoint Depression Visibility Wind Speed Wind Dir Waves Ship Positions

Drifting buoy 21901

Last reported at 2018-Jan-20 06:50 UTC. Time now 2018-Jan-20 09:02 UTC.
Position N 14°04' E 177°11'.

Barometer 1011.2 mb
Water temperature 26.8 ° C

Date/timePositionNaut miles runAvg speedWind from/ knotsBaromVisibWave heightAir tempDewpointWater temp
2018-Jan-20 06:50N 14°04' E 177°11'1 1.3 1011.2 26.8
2018-Jan-20 05:50N 14°05' E 177°12'1 1.3 1010.5 26.8
2018-Jan-20 04:50N 14°05' E 177°13'1 1.3 1010.0 26.8
2018-Jan-20 03:50N 14°05' E 177°14'0 0.0 1009.8 26.8
2018-Jan-20 02:50N 14°05' E 177°14'0 0.0 1009.8 26.8
2018-Jan-20 01:50N 14°05' E 177°14'40 1.1 1010.3 26.8
2018-Jan-18 14:50N 13°52' E 177°53'0 0.0 1010.3 26.8
2018-Jan-18 13:50N 13°52' E 177°53'6 1.5 1011.1 26.8
2018-Jan-18 09:50N 13°50' E 177°59'1 0.8 1012.8 26.8
2018-Jan-18 08:50N 13°50' E 177°59'0 0.0 1012.5 26.8
2018-Jan-18 07:50N 13°50' E 177°59'2 2.1 1011.7 26.8
2018-Jan-18 06:50N 13°49' E 178°01'1 0.6 1010.7 26.8
2018-Jan-18 05:50N 13°49' E 178°02'2 1.7 1010.1 26.8
2018-Jan-18 04:50N 13°47' E 178°03'1 1.3 1010.0 26.8
2018-Jan-18 03:50N 13°48' E 178°04'2 1.8 1009.6 26.8
2018-Jan-18 02:50N 13°47' E 178°06'0 0.0 1009.9 26.8
2018-Jan-18 01:50N 13°47' E 178°06'0 0.0 1010.4 26.8
2018-Jan-18 00:50N 13°47' E 178°06'5 1.2 1011.3 26.8
2018-Jan-17 20:50N 13°47' E 178°11'2 2.1 1013.5 26.8
2018-Jan-17 19:50N 13°46' E 178°13'1 0.6 1012.9 26.8
2018-Jan-17 18:50N 13°46' E 178°12'1 1.3 1012.5 26.8
2018-Jan-17 17:50N 13°45' E 178°13'3 1.5 1012.4 26.8
2018-Jan-17 15:50N 13°44' E 178°16'0 0.0 1011.8 26.8
2018-Jan-17 14:50N 13°44' E 178°16'0 0.0 1011.8 26.8
2018-Jan-17 13:50N 13°44' E 178°16'6 1.2 1012.3 26.8
2018-Jan-17 08:50N 13°43' E 178°22'0 0.0 1013.3 26.9
2018-Jan-17 07:50N 13°43' E 178°22'   1013.0 26.9
Track history (hours):
 
Tides and Currents Weather Stations Pressure Air Temp Water Temp Dewpoint Dewpoint Depression Visibility Wind Speed Wind Dir Waves Ship Positions

Drifting buoy 21901

Last reported at 2018-Jan-20 06:50 UTC. Time now 2018-Jan-20 09:02 UTC.
Position N 14°04' E 177°11'.

Barometer 1011.2 mb
Water temperature 26.8 ° C

Date/timePositionNaut miles runAvg speedWind from/ knotsBaromVisibWave heightAir tempDewpointWater temp
2018-Jan-20 06:50N 14°04' E 177°11'1 1.3 1011.2 26.8
2018-Jan-20 05:50N 14°05' E 177°12'1 1.3 1010.5 26.8
2018-Jan-20 04:50N 14°05' E 177°13'1 1.3 1010.0 26.8
2018-Jan-20 03:50N 14°05' E 177°14'0 0.0 1009.8 26.8
2018-Jan-20 02:50N 14°05' E 177°14'0 0.0 1009.8 26.8
2018-Jan-20 01:50N 14°05' E 177°14'40 1.1 1010.3 26.8
2018-Jan-18 14:50N 13°52' E 177°53'0 0.0 1010.3 26.8
2018-Jan-18 13:50N 13°52' E 177°53'6 1.5 1011.1 26.8
2018-Jan-18 09:50N 13°50' E 177°59'1 0.8 1012.8 26.8
2018-Jan-18 08:50N 13°50' E 177°59'0 0.0 1012.5 26.8
2018-Jan-18 07:50N 13°50' E 177°59'2 2.1 1011.7 26.8
2018-Jan-18 06:50N 13°49' E 178°01'1 0.6 1010.7 26.8
2018-Jan-18 05:50N 13°49' E 178°02'2 1.7 1010.1 26.8
2018-Jan-18 04:50N 13°47' E 178°03'1 1.3 1010.0 26.8
2018-Jan-18 03:50N 13°48' E 178°04'2 1.8 1009.6 26.8
2018-Jan-18 02:50N 13°47' E 178°06'0 0.0 1009.9 26.8
2018-Jan-18 01:50N 13°47' E 178°06'0 0.0 1010.4 26.8
2018-Jan-18 00:50N 13°47' E 178°06'5 1.2 1011.3 26.8
2018-Jan-17 20:50N 13°47' E 178°11'2 2.1 1013.5 26.8
2018-Jan-17 19:50N 13°46' E 178°13'1 0.6 1012.9 26.8
2018-Jan-17 18:50N 13°46' E 178°12'1 1.3 1012.5 26.8
2018-Jan-17 17:50N 13°45' E 178°13'3 1.5 1012.4 26.8
2018-Jan-17 15:50N 13°44' E 178°16'0 0.0 1011.8 26.8
2018-Jan-17 14:50N 13°44' E 178°16'0 0.0 1011.8 26.8
2018-Jan-17 13:50N 13°44' E 178°16'6 1.2 1012.3 26.8
2018-Jan-17 08:50N 13°43' E 178°22'0 0.0 1013.3 26.9
2018-Jan-17 07:50N 13°43' E 178°22'   1013.0 26.9

Dump ship's entire track history